sensor_id;sensor_type;location;lat;lon;timestamp;P1;durP1;ratioP1;P2;durP2;ratioP2
23990;SDS011;12205;50.600;4.608;2023-04-25T00:02:10;8.23;;;1.40;;
23990;SDS011;12205;50.600;4.608;2023-04-25T00:04:37;9.35;;;1.50;;
23990;SDS011;12205;50.600;4.608;2023-04-25T00:07:04;6.70;;;1.30;;
23990;SDS011;12205;50.600;4.608;2023-04-25T00:09:31;7.75;;;1.30;;
23990;SDS011;12205;50.600;4.608;2023-04-25T00:11:59;10.82;;;1.80;;
23990;SDS011;12205;50.600;4.608;2023-04-25T00:14:28;13.70;;;2.00;;
23990;SDS011;12205;50.600;4.608;2023-04-25T00:16:55;8.05;;;1.50;;
23990;SDS011;12205;50.600;4.608;2023-04-25T00:19:23;6.80;;;1.25;;
23990;SDS011;12205;50.600;4.608;2023-04-25T00:21:49;6.35;;;1.35;;
23990;SDS011;12205;50.600;4.608;2023-04-25T00:24:16;9.18;;;1.50;;
23990;SDS011;12205;50.600;4.608;2023-04-25T00:26:43;10.38;;;1.65;;
23990;SDS011;12205;50.600;4.608;2023-04-25T00:29:10;10.55;;;1.77;;
23990;SDS011;12205;50.600;4.608;2023-04-25T00:31:38;13.20;;;1.98;;
23990;SDS011;12205;50.600;4.608;2023-04-25T00:34:05;8.93;;;1.55;;
23990;SDS011;12205;50.600;4.608;2023-04-25T00:36:34;19.85;;;2.15;;
23990;SDS011;12205;50.600;4.608;2023-04-25T00:39:01;10.90;;;1.45;;
23990;SDS011;12205;50.600;4.608;2023-04-25T00:41:29;8.15;;;1.08;;
23990;SDS011;12205;50.600;4.608;2023-04-25T00:43:56;16.85;;;2.22;;
23990;SDS011;12205;50.600;4.608;2023-04-25T00:46:25;13.43;;;2.50;;
23990;SDS011;12205;50.600;4.608;2023-04-25T00:48:53;9.60;;;1.20;;
23990;SDS011;12205;50.600;4.608;2023-04-25T00:51:21;9.07;;;1.40;;
23990;SDS011;12205;50.600;4.608;2023-04-25T00:53:48;13.43;;;1.73;;
23990;SDS011;12205;50.600;4.608;2023-04-25T00:56:16;8.38;;;1.38;;
23990;SDS011;12205;50.600;4.608;2023-04-25T00:58:43;11.35;;;1.60;;
23990;SDS011;12205;50.600;4.608;2023-04-25T01:01:10;11.68;;;1.70;;
23990;SDS011;12205;50.600;4.608;2023-04-25T01:03:38;11.73;;;1.42;;
23990;SDS011;12205;50.600;4.608;2023-04-25T01:06:08;10.73;;;1.85;;
23990;SDS011;12205;50.600;4.608;2023-04-25T01:08:37;7.85;;;1.48;;
23990;SDS011;12205;50.600;4.608;2023-04-25T01:11:04;10.70;;;2.25;;
23990;SDS011;12205;50.600;4.608;2023-04-25T01:13:32;6.07;;;1.00;;
23990;SDS011;12205;50.600;4.608;2023-04-25T01:15:59;11.35;;;1.48;;
23990;SDS011;12205;50.600;4.608;2023-04-25T01:18:27;10.88;;;1.52;;
23990;SDS011;12205;50.600;4.608;2023-04-25T01:20:54;13.38;;;1.58;;
23990;SDS011;12205;50.600;4.608;2023-04-25T01:23:23;15.05;;;2.10;;
23990;SDS011;12205;50.600;4.608;2023-04-25T01:25:50;16.05;;;1.95;;
23990;SDS011;12205;50.600;4.608;2023-04-25T01:28:18;8.80;;;1.70;;
23990;SDS011;12205;50.600;4.608;2023-04-25T01:30:45;9.57;;;1.30;;
23990;SDS011;12205;50.600;4.608;2023-04-25T01:33:13;8.90;;;1.50;;
23990;SDS011;12205;50.600;4.608;2023-04-25T01:35:41;16.50;;;2.25;;
23990;SDS011;12205;50.600;4.608;2023-04-25T01:38:08;12.63;;;2.10;;
23990;SDS011;12205;50.600;4.608;2023-04-25T01:40:38;16.02;;;1.70;;
23990;SDS011;12205;50.600;4.608;2023-04-25T01:43:07;12.63;;;1.93;;
23990;SDS011;12205;50.600;4.608;2023-04-25T01:45:36;14.27;;;1.80;;
23990;SDS011;12205;50.600;4.608;2023-04-25T01:48:05;9.93;;;1.40;;
23990;SDS011;12205;50.600;4.608;2023-04-25T01:50:32;11.00;;;1.35;;
23990;SDS011;12205;50.600;4.608;2023-04-25T01:52:59;9.60;;;1.60;;
23990;SDS011;12205;50.600;4.608;2023-04-25T01:55:27;10.55;;;1.50;;
23990;SDS011;12205;50.600;4.608;2023-04-25T01:58:08;8.00;;;1.38;;
23990;SDS011;12205;50.600;4.608;2023-04-25T02:00:56;17.30;;;2.25;;
23990;SDS011;12205;50.600;4.608;2023-04-25T02:03:27;18.92;;;2.42;;
23990;SDS011;12205;50.600;4.608;2023-04-25T02:05:55;13.57;;;1.85;;
23990;SDS011;12205;50.600;4.608;2023-04-25T02:08:23;18.73;;;2.40;;
23990;SDS011;12205;50.600;4.608;2023-04-25T02:10:53;9.55;;;1.75;;
23990;SDS011;12205;50.600;4.608;2023-04-25T02:13:23;12.43;;;1.90;;
23990;SDS011;12205;50.600;4.608;2023-04-25T02:15:57;14.10;;;1.70;;
23990;SDS011;12205;50.600;4.608;2023-04-25T02:18:24;9.02;;;1.88;;
23990;SDS011;12205;50.600;4.608;2023-04-25T02:20:52;9.82;;;1.50;;
23990;SDS011;12205;50.600;4.608;2023-04-25T02:23:19;17.20;;;2.22;;
23990;SDS011;12205;50.600;4.608;2023-04-25T02:25:46;11.73;;;1.77;;
23990;SDS011;12205;50.600;4.608;2023-04-25T02:28:13;19.67;;;2.60;;
23990;SDS011;12205;50.600;4.608;2023-04-25T02:30:41;11.77;;;2.30;;
23990;SDS011;12205;50.600;4.608;2023-04-25T02:33:08;13.02;;;1.90;;
23990;SDS011;12205;50.600;4.608;2023-04-25T02:35:35;13.65;;;1.98;;
23990;SDS011;12205;50.600;4.608;2023-04-25T02:38:02;17.27;;;2.88;;
23990;SDS011;12205;50.600;4.608;2023-04-25T02:40:29;18.02;;;2.13;;
23990;SDS011;12205;50.600;4.608;2023-04-25T02:42:56;5.60;;;1.58;;
23990;SDS011;12205;50.600;4.608;2023-04-25T02:45:25;14.38;;;2.13;;
23990;SDS011;12205;50.600;4.608;2023-04-25T02:47:53;8.93;;;1.75;;
23990;SDS011;12205;50.600;4.608;2023-04-25T02:50:20;13.82;;;2.53;;
23990;SDS011;12205;50.600;4.608;2023-04-25T02:52:47;13.50;;;1.88;;
23990;SDS011;12205;50.600;4.608;2023-04-25T02:55:19;13.63;;;1.85;;
23990;SDS011;12205;50.600;4.608;2023-04-25T02:57:48;14.35;;;1.80;;
23990;SDS011;12205;50.600;4.608;2023-04-25T03:00:26;16.33;;;2.38;;
23990;SDS011;12205;50.600;4.608;2023-04-25T03:02:54;11.00;;;2.17;;
23990;SDS011;12205;50.600;4.608;2023-04-25T03:05:21;9.02;;;1.77;;
23990;SDS011;12205;50.600;4.608;2023-04-25T03:07:48;14.18;;;2.05;;
23990;SDS011;12205;50.600;4.608;2023-04-25T03:10:15;15.80;;;2.40;;
23990;SDS011;12205;50.600;4.608;2023-04-25T03:15:28;18.40;;;2.58;;
23990;SDS011;12205;50.600;4.608;2023-04-25T03:17:57;11.57;;;2.05;;
23990;SDS011;12205;50.600;4.608;2023-04-25T03:20:24;16.35;;;2.13;;
23990;SDS011;12205;50.600;4.608;2023-04-25T03:22:51;13.30;;;2.13;;
23990;SDS011;12205;50.600;4.608;2023-04-25T03:25:18;15.70;;;2.47;;
23990;SDS011;12205;50.600;4.608;2023-04-25T03:27:45;12.90;;;2.30;;
23990;SDS011;12205;50.600;4.608;2023-04-25T03:30:12;13.13;;;2.22;;
23990;SDS011;12205;50.600;4.608;2023-04-25T03:32:41;22.67;;;2.63;;
23990;SDS011;12205;50.600;4.608;2023-04-25T03:35:09;9.43;;;1.95;;
23990;SDS011;12205;50.600;4.608;2023-04-25T03:37:36;19.83;;;2.70;;
23990;SDS011;12205;50.600;4.608;2023-04-25T03:40:03;9.43;;;2.00;;
23990;SDS011;12205;50.600;4.608;2023-04-25T03:42:54;10.18;;;1.25;;
23990;SDS011;12205;50.600;4.608;2023-04-25T03:45:21;13.32;;;2.13;;
23990;SDS011;12205;50.600;4.608;2023-04-25T03:47:48;12.85;;;1.58;;
23990;SDS011;12205;50.600;4.608;2023-04-25T03:50:17;10.95;;;1.58;;
23990;SDS011;12205;50.600;4.608;2023-04-25T03:52:44;6.90;;;1.33;;
23990;SDS011;12205;50.600;4.608;2023-04-25T03:55:11;11.52;;;1.95;;
23990;SDS011;12205;50.600;4.608;2023-04-25T03:57:38;9.95;;;1.77;;
23990;SDS011;12205;50.600;4.608;2023-04-25T04:00:06;11.02;;;1.67;;
23990;SDS011;12205;50.600;4.608;2023-04-25T04:02:40;7.20;;;1.60;;
23990;SDS011;12205;50.600;4.608;2023-04-25T04:05:09;5.38;;;1.67;;
23990;SDS011;12205;50.600;4.608;2023-04-25T04:07:42;7.45;;;1.33;;
23990;SDS011;12205;50.600;4.608;2023-04-25T04:10:10;8.45;;;1.67;;
23990;SDS011;12205;50.600;4.608;2023-04-25T04:12:39;13.77;;;2.10;;
23990;SDS011;12205;50.600;4.608;2023-04-25T04:15:06;8.80;;;1.90;;
23990;SDS011;12205;50.600;4.608;2023-04-25T04:17:34;12.13;;;1.75;;
23990;SDS011;12205;50.600;4.608;2023-04-25T04:20:01;10.27;;;1.50;;
23990;SDS011;12205;50.600;4.608;2023-04-25T04:22:30;10.05;;;1.80;;
23990;SDS011;12205;50.600;4.608;2023-04-25T04:25:05;12.65;;;2.22;;
23990;SDS011;12205;50.600;4.608;2023-04-25T04:27:59;13.95;;;2.10;;
23990;SDS011;12205;50.600;4.608;2023-04-25T04:30:35;9.48;;;1.35;;
23990;SDS011;12205;50.600;4.608;2023-04-25T04:33:06;9.20;;;1.50;;
23990;SDS011;12205;50.600;4.608;2023-04-25T04:35:33;8.60;;;1.63;;
23990;SDS011;12205;50.600;4.608;2023-04-25T04:38:00;12.68;;;1.80;;
23990;SDS011;12205;50.600;4.608;2023-04-25T04:43:06;12.48;;;1.77;;
23990;SDS011;12205;50.600;4.608;2023-04-25T04:45:43;11.85;;;1.92;;
23990;SDS011;12205;50.600;4.608;2023-04-25T04:48:28;10.10;;;1.70;;
23990;SDS011;12205;50.600;4.608;2023-04-25T04:51:10;11.10;;;1.67;;
23990;SDS011;12205;50.600;4.608;2023-04-25T04:54:03;10.20;;;1.70;;
23990;SDS011;12205;50.600;4.608;2023-04-25T04:57:06;10.65;;;1.98;;
23990;SDS011;12205;50.600;4.608;2023-04-25T04:59:56;12.15;;;1.60;;
23990;SDS011;12205;50.600;4.608;2023-04-25T05:02:46;9.95;;;1.63;;
23990;SDS011;12205;50.600;4.608;2023-04-25T05:05:16;13.65;;;2.20;;
23990;SDS011;12205;50.600;4.608;2023-04-25T05:08:09;8.48;;;1.88;;
23990;SDS011;12205;50.600;4.608;2023-04-25T05:10:59;8.50;;;1.85;;
23990;SDS011;12205;50.600;4.608;2023-04-25T05:13:53;13.35;;;2.33;;
23990;SDS011;12205;50.600;4.608;2023-04-25T05:16:38;10.82;;;2.10;;
23990;SDS011;12205;50.600;4.608;2023-04-25T05:19:28;13.65;;;2.28;;
23990;SDS011;12205;50.600;4.608;2023-04-25T05:22:22;15.95;;;2.45;;
23990;SDS011;12205;50.600;4.608;2023-04-25T05:25:15;12.95;;;2.63;;
23990;SDS011;12205;50.600;4.608;2023-04-25T05:27:55;17.77;;;2.33;;
23990;SDS011;12205;50.600;4.608;2023-04-25T05:30:47;11.68;;;1.80;;
23990;SDS011;12205;50.600;4.608;2023-04-25T05:35:45;7.82;;;1.50;;
23990;SDS011;12205;50.600;4.608;2023-04-25T05:38:13;15.50;;;2.20;;
23990;SDS011;12205;50.600;4.608;2023-04-25T05:40:58;17.63;;;2.50;;
23990;SDS011;12205;50.600;4.608;2023-04-25T05:43:39;12.30;;;1.80;;
23990;SDS011;12205;50.600;4.608;2023-04-25T05:46:28;15.35;;;2.17;;
23990;SDS011;12205;50.600;4.608;2023-04-25T05:49:13;13.40;;;1.80;;
23990;SDS011;12205;50.600;4.608;2023-04-25T05:51:54;25.55;;;2.83;;
23990;SDS011;12205;50.600;4.608;2023-04-25T05:54:39;16.55;;;1.90;;
23990;SDS011;12205;50.600;4.608;2023-04-25T05:57:06;10.30;;;1.58;;
23990;SDS011;12205;50.600;4.608;2023-04-25T05:59:33;11.40;;;1.95;;
23990;SDS011;12205;50.600;4.608;2023-04-25T06:02:01;10.00;;;1.75;;
23990;SDS011;12205;50.600;4.608;2023-04-25T06:04:31;15.55;;;2.22;;
23990;SDS011;12205;50.600;4.608;2023-04-25T06:06:59;13.10;;;2.03;;
23990;SDS011;12205;50.600;4.608;2023-04-25T06:09:26;13.25;;;1.98;;
23990;SDS011;12205;50.600;4.608;2023-04-25T06:11:53;7.60;;;1.90;;
23990;SDS011;12205;50.600;4.608;2023-04-25T06:14:20;10.25;;;1.80;;
23990;SDS011;12205;50.600;4.608;2023-04-25T06:16:49;7.05;;;1.30;;
23990;SDS011;12205;50.600;4.608;2023-04-25T06:19:17;14.23;;;1.90;;
23990;SDS011;12205;50.600;4.608;2023-04-25T06:21:44;14.07;;;1.77;;
23990;SDS011;12205;50.600;4.608;2023-04-25T06:24:11;8.65;;;1.55;;
23990;SDS011;12205;50.600;4.608;2023-04-25T06:26:38;15.35;;;2.25;;
23990;SDS011;12205;50.600;4.608;2023-04-25T06:29:05;10.75;;;1.90;;
23990;SDS011;12205;50.600;4.608;2023-04-25T06:31:32;7.93;;;1.33;;
23990;SDS011;12205;50.600;4.608;2023-04-25T06:34:00;20.20;;;2.50;;
23990;SDS011;12205;50.600;4.608;2023-04-25T06:36:31;12.95;;;1.55;;
23990;SDS011;12205;50.600;4.608;2023-04-25T06:39:04;9.25;;;1.52;;
23990;SDS011;12205;50.600;4.608;2023-04-25T06:41:32;8.45;;;1.40;;
23990;SDS011;12205;50.600;4.608;2023-04-25T06:44:01;14.05;;;2.00;;
23990;SDS011;12205;50.600;4.608;2023-04-25T06:49:12;11.85;;;1.67;;
23990;SDS011;12205;50.600;4.608;2023-04-25T06:51:41;9.23;;;1.48;;
23990;SDS011;12205;50.600;4.608;2023-04-25T06:54:08;16.05;;;2.08;;
23990;SDS011;12205;50.600;4.608;2023-04-25T06:56:47;8.80;;;1.83;;
23990;SDS011;12205;50.600;4.608;2023-04-25T06:59:14;9.02;;;1.95;;
23990;SDS011;12205;50.600;4.608;2023-04-25T07:01:43;13.65;;;2.20;;
23990;SDS011;12205;50.600;4.608;2023-04-25T07:04:15;11.02;;;1.90;;
23990;SDS011;12205;50.600;4.608;2023-04-25T07:06:49;16.33;;;2.20;;
23990;SDS011;12205;50.600;4.608;2023-04-25T07:09:21;11.20;;;2.00;;
23990;SDS011;12205;50.600;4.608;2023-04-25T07:11:49;10.25;;;1.60;;
23990;SDS011;12205;50.600;4.608;2023-04-25T07:14:16;12.60;;;1.75;;
23990;SDS011;12205;50.600;4.608;2023-04-25T07:16:44;15.73;;;2.60;;
23990;SDS011;12205;50.600;4.608;2023-04-25T07:19:12;16.10;;;2.80;;
23990;SDS011;12205;50.600;4.608;2023-04-25T07:21:39;12.55;;;1.77;;
23990;SDS011;12205;50.600;4.608;2023-04-25T07:24:07;14.90;;;2.20;;
23990;SDS011;12205;50.600;4.608;2023-04-25T07:26:38;16.00;;;2.35;;
23990;SDS011;12205;50.600;4.608;2023-04-25T07:29:17;14.77;;;2.10;;
23990;SDS011;12205;50.600;4.608;2023-04-25T07:31:43;9.55;;;1.38;;
23990;SDS011;12205;50.600;4.608;2023-04-25T07:34:10;19.67;;;2.53;;
23990;SDS011;12205;50.600;4.608;2023-04-25T07:36:38;18.85;;;2.28;;
23990;SDS011;12205;50.600;4.608;2023-04-25T07:39:05;10.50;;;1.48;;
23990;SDS011;12205;50.600;4.608;2023-04-25T07:41:36;14.80;;;1.75;;
23990;SDS011;12205;50.600;4.608;2023-04-25T07:44:04;16.05;;;1.95;;
23990;SDS011;12205;50.600;4.608;2023-04-25T07:46:33;12.30;;;1.80;;
23990;SDS011;12205;50.600;4.608;2023-04-25T07:49:01;14.80;;;2.00;;
23990;SDS011;12205;50.600;4.608;2023-04-25T07:51:29;9.50;;;1.67;;
23990;SDS011;12205;50.600;4.608;2023-04-25T07:54:00;12.25;;;1.60;;
23990;SDS011;12205;50.600;4.608;2023-04-25T07:56:28;16.08;;;2.05;;
23990;SDS011;12205;50.600;4.608;2023-04-25T07:58:57;13.68;;;1.98;;
23990;SDS011;12205;50.600;4.608;2023-04-25T08:01:24;7.13;;;1.30;;
23990;SDS011;12205;50.600;4.608;2023-04-25T08:03:56;11.80;;;1.58;;
23990;SDS011;12205;50.600;4.608;2023-04-25T08:06:32;11.13;;;1.40;;
23990;SDS011;12205;50.600;4.608;2023-04-25T08:09:08;12.82;;;1.90;;
23990;SDS011;12205;50.600;4.608;2023-04-25T08:11:38;9.70;;;1.48;;
23990;SDS011;12205;50.600;4.608;2023-04-25T08:14:08;17.38;;;1.80;;
23990;SDS011;12205;50.600;4.608;2023-04-25T08:16:36;11.35;;;1.30;;
23990;SDS011;12205;50.600;4.608;2023-04-25T08:19:04;15.45;;;1.85;;
23990;SDS011;12205;50.600;4.608;2023-04-25T08:21:31;12.95;;;1.42;;
23990;SDS011;12205;50.600;4.608;2023-04-25T08:24:02;14.20;;;2.08;;
23990;SDS011;12205;50.600;4.608;2023-04-25T08:26:33;6.93;;;1.10;;
23990;SDS011;12205;50.600;4.608;2023-04-25T08:29:02;14.07;;;2.17;;
23990;SDS011;12205;50.600;4.608;2023-04-25T08:31:31;46.78;;;5.03;;
23990;SDS011;12205;50.600;4.608;2023-04-25T08:34:01;14.65;;;2.08;;
23990;SDS011;12205;50.600;4.608;2023-04-25T08:36:42;9.88;;;1.55;;
23990;SDS011;12205;50.600;4.608;2023-04-25T08:39:28;15.13;;;2.63;;
23990;SDS011;12205;50.600;4.608;2023-04-25T08:42:17;15.93;;;2.10;;
23990;SDS011;12205;50.600;4.608;2023-04-25T08:44:45;19.13;;;2.30;;
23990;SDS011;12205;50.600;4.608;2023-04-25T08:47:16;20.20;;;2.70;;
23990;SDS011;12205;50.600;4.608;2023-04-25T08:49:53;12.50;;;1.85;;
23990;SDS011;12205;50.600;4.608;2023-04-25T08:52:21;17.83;;;2.75;;
23990;SDS011;12205;50.600;4.608;2023-04-25T08:54:50;12.23;;;1.92;;
23990;SDS011;12205;50.600;4.608;2023-04-25T08:57:19;16.90;;;2.55;;
23990;SDS011;12205;50.600;4.608;2023-04-25T08:59:48;21.02;;;3.10;;
23990;SDS011;12205;50.600;4.608;2023-04-25T09:02:17;8.38;;;1.90;;
23990;SDS011;12205;50.600;4.608;2023-04-25T09:04:48;16.33;;;2.70;;
23990;SDS011;12205;50.600;4.608;2023-04-25T09:07:15;11.32;;;1.65;;
23990;SDS011;12205;50.600;4.608;2023-04-25T09:09:46;10.10;;;1.50;;
23990;SDS011;12205;50.600;4.608;2023-04-25T09:12:17;17.98;;;2.55;;
23990;SDS011;12205;50.600;4.608;2023-04-25T09:15:00;7.75;;;1.10;;
23990;SDS011;12205;50.600;4.608;2023-04-25T09:17:50;8.43;;;1.20;;
23990;SDS011;12205;50.600;4.608;2023-04-25T09:20:22;6.43;;;0.98;;
23990;SDS011;12205;50.600;4.608;2023-04-25T09:22:50;13.75;;;1.65;;
23990;SDS011;12205;50.600;4.608;2023-04-25T09:25:28;10.13;;;0.90;;
23990;SDS011;12205;50.600;4.608;2023-04-25T09:28:03;10.40;;;1.08;;
23990;SDS011;12205;50.600;4.608;2023-04-25T09:30:32;11.93;;;1.23;;
23990;SDS011;12205;50.600;4.608;2023-04-25T09:33:07;8.18;;;1.10;;
23990;SDS011;12205;50.600;4.608;2023-04-25T09:35:36;9.83;;;1.03;;
23990;SDS011;12205;50.600;4.608;2023-04-25T09:38:09;8.82;;;0.90;;
23990;SDS011;12205;50.600;4.608;2023-04-25T09:40:52;16.25;;;1.85;;
23990;SDS011;12205;50.600;4.608;2023-04-25T09:43:27;7.32;;;1.00;;
23990;SDS011;12205;50.600;4.608;2023-04-25T09:45:55;8.50;;;1.30;;
23990;SDS011;12205;50.600;4.608;2023-04-25T09:48:26;11.50;;;1.08;;
23990;SDS011;12205;50.600;4.608;2023-04-25T09:51:04;13.50;;;1.50;;
23990;SDS011;12205;50.600;4.608;2023-04-25T09:53:33;11.65;;;1.30;;
23990;SDS011;12205;50.600;4.608;2023-04-25T09:56:21;6.05;;;1.00;;
23990;SDS011;12205;50.600;4.608;2023-04-25T09:58:49;8.32;;;0.93;;
23990;SDS011;12205;50.600;4.608;2023-04-25T10:01:19;13.88;;;2.22;;
23990;SDS011;12205;50.600;4.608;2023-04-25T10:04:10;5.18;;;1.00;;
23990;SDS011;12205;50.600;4.608;2023-04-25T10:06:46;34.00;;;3.35;;
23990;SDS011;12205;50.600;4.608;2023-04-25T10:09:16;9.52;;;1.30;;
23990;SDS011;12205;50.600;4.608;2023-04-25T10:11:46;8.35;;;0.85;;
23990;SDS011;12205;50.600;4.608;2023-04-25T10:14:14;5.93;;;0.70;;
23990;SDS011;12205;50.600;4.608;2023-04-25T10:16:42;10.15;;;1.35;;
23990;SDS011;12205;50.600;4.608;2023-04-25T10:19:10;12.73;;;1.08;;
23990;SDS011;12205;50.600;4.608;2023-04-25T10:21:39;12.20;;;1.48;;
23990;SDS011;12205;50.600;4.608;2023-04-25T10:24:12;7.55;;;0.95;;
23990;SDS011;12205;50.600;4.608;2023-04-25T10:26:39;8.20;;;0.80;;
23990;SDS011;12205;50.600;4.608;2023-04-25T10:29:06;6.28;;;1.20;;
23990;SDS011;12205;50.600;4.608;2023-04-25T10:31:38;8.25;;;0.90;;
23990;SDS011;12205;50.600;4.608;2023-04-25T10:34:13;6.60;;;0.82;;
23990;SDS011;12205;50.600;4.608;2023-04-25T10:36:40;5.88;;;0.82;;
23990;SDS011;12205;50.600;4.608;2023-04-25T10:39:07;7.25;;;1.00;;
23990;SDS011;12205;50.600;4.608;2023-04-25T10:44:20;5.75;;;0.70;;
23990;SDS011;12205;50.600;4.608;2023-04-25T10:46:47;7.18;;;0.98;;
23990;SDS011;12205;50.600;4.608;2023-04-25T10:49:29;9.20;;;0.90;;
23990;SDS011;12205;50.600;4.608;2023-04-25T10:52:17;8.70;;;0.90;;
23990;SDS011;12205;50.600;4.608;2023-04-25T10:54:48;6.32;;;0.80;;
23990;SDS011;12205;50.600;4.608;2023-04-25T10:57:29;8.80;;;0.80;;
23990;SDS011;12205;50.600;4.608;2023-04-25T11:00:00;7.60;;;0.63;;
23990;SDS011;12205;50.600;4.608;2023-04-25T11:02:31;7.47;;;0.70;;
23990;SDS011;12205;50.600;4.608;2023-04-25T11:05:04;9.45;;;0.80;;
23990;SDS011;12205;50.600;4.608;2023-04-25T11:07:34;8.77;;;1.15;;
23990;SDS011;12205;50.600;4.608;2023-04-25T11:10:04;6.82;;;0.88;;
23990;SDS011;12205;50.600;4.608;2023-04-25T11:12:32;3.10;;;0.60;;
23990;SDS011;12205;50.600;4.608;2023-04-25T11:14:59;8.95;;;0.93;;
23990;SDS011;12205;50.600;4.608;2023-04-25T11:17:27;12.52;;;1.40;;
23990;SDS011;12205;50.600;4.608;2023-04-25T11:19:55;8.73;;;0.95;;
23990;SDS011;12205;50.600;4.608;2023-04-25T11:22:23;14.25;;;1.27;;
23990;SDS011;12205;50.600;4.608;2023-04-25T11:24:50;9.55;;;1.30;;
23990;SDS011;12205;50.600;4.608;2023-04-25T11:27:17;11.05;;;1.30;;
23990;SDS011;12205;50.600;4.608;2023-04-25T11:29:44;5.80;;;0.55;;
23990;SDS011;12205;50.600;4.608;2023-04-25T11:32:13;5.00;;;0.73;;
23990;SDS011;12205;50.600;4.608;2023-04-25T11:34:44;11.30;;;1.27;;
23990;SDS011;12205;50.600;4.608;2023-04-25T11:37:11;4.70;;;0.80;;
23990;SDS011;12205;50.600;4.608;2023-04-25T11:39:43;5.15;;;0.80;;
23990;SDS011;12205;50.600;4.608;2023-04-25T11:42:11;5.82;;;0.70;;
23990;SDS011;12205;50.600;4.608;2023-04-25T11:44:39;8.48;;;1.00;;
23990;SDS011;12205;50.600;4.608;2023-04-25T11:47:06;5.75;;;0.80;;
23990;SDS011;12205;50.600;4.608;2023-04-25T11:49:33;4.53;;;0.70;;
23990;SDS011;12205;50.600;4.608;2023-04-25T11:52:01;7.53;;;1.00;;
23990;SDS011;12205;50.600;4.608;2023-04-25T11:54:28;11.75;;;1.33;;
23990;SDS011;12205;50.600;4.608;2023-04-25T11:56:56;8.75;;;1.00;;
23990;SDS011;12205;50.600;4.608;2023-04-25T11:59:24;4.57;;;1.10;;
23990;SDS011;12205;50.600;4.608;2023-04-25T12:01:52;9.63;;;1.10;;
23990;SDS011;12205;50.600;4.608;2023-04-25T12:04:19;11.07;;;1.13;;
23990;SDS011;12205;50.600;4.608;2023-04-25T12:06:48;5.07;;;0.77;;
23990;SDS011;12205;50.600;4.608;2023-04-25T12:09:16;6.28;;;0.93;;
23990;SDS011;12205;50.600;4.608;2023-04-25T12:11:44;8.30;;;1.02;;
23990;SDS011;12205;50.600;4.608;2023-04-25T12:14:20;7.75;;;0.90;;
23990;SDS011;12205;50.600;4.608;2023-04-25T12:16:49;6.70;;;0.82;;
23990;SDS011;12205;50.600;4.608;2023-04-25T12:19:17;3.25;;;0.40;;
23990;SDS011;12205;50.600;4.608;2023-04-25T12:21:46;8.57;;;0.60;;
23990;SDS011;12205;50.600;4.608;2023-04-25T12:24:14;4.88;;;0.57;;
23990;SDS011;12205;50.600;4.608;2023-04-25T12:26:47;4.80;;;0.40;;
23990;SDS011;12205;50.600;4.608;2023-04-25T12:29:17;4.00;;;0.50;;
23990;SDS011;12205;50.600;4.608;2023-04-25T12:31:45;5.97;;;0.40;;
23990;SDS011;12205;50.600;4.608;2023-04-25T12:34:12;4.60;;;0.50;;
23990;SDS011;12205;50.600;4.608;2023-04-25T12:36:39;6.82;;;0.70;;
23990;SDS011;12205;50.600;4.608;2023-04-25T12:39:06;4.35;;;0.50;;
23990;SDS011;12205;50.600;4.608;2023-04-25T12:41:33;7.13;;;0.52;;
23990;SDS011;12205;50.600;4.608;2023-04-25T12:44:00;3.85;;;0.50;;
23990;SDS011;12205;50.600;4.608;2023-04-25T12:46:28;6.30;;;0.47;;
23990;SDS011;12205;50.600;4.608;2023-04-25T12:48:55;12.30;;;1.33;;
23990;SDS011;12205;50.600;4.608;2023-04-25T12:51:22;6.10;;;0.50;;
23990;SDS011;12205;50.600;4.608;2023-04-25T12:53:50;3.85;;;0.60;;
23990;SDS011;12205;50.600;4.608;2023-04-25T12:56:18;5.45;;;0.60;;
23990;SDS011;12205;50.600;4.608;2023-04-25T12:58:45;6.05;;;0.40;;
23990;SDS011;12205;50.600;4.608;2023-04-25T13:01:13;3.40;;;0.50;;
23990;SDS011;12205;50.600;4.608;2023-04-25T13:03:41;4.50;;;0.68;;
23990;SDS011;12205;50.600;4.608;2023-04-25T13:06:08;6.38;;;0.63;;
23990;SDS011;12205;50.600;4.608;2023-04-25T13:08:35;2.63;;;0.30;;
23990;SDS011;12205;50.600;4.608;2023-04-25T13:11:03;7.90;;;1.08;;
23990;SDS011;12205;50.600;4.608;2023-04-25T13:13:30;5.15;;;0.30;;
23990;SDS011;12205;50.600;4.608;2023-04-25T13:15:59;4.60;;;0.40;;
23990;SDS011;12205;50.600;4.608;2023-04-25T13:18:27;4.30;;;0.38;;
23990;SDS011;12205;50.600;4.608;2023-04-25T13:20:55;4.55;;;0.50;;
23990;SDS011;12205;50.600;4.608;2023-04-25T13:23:22;5.22;;;0.40;;
23990;SDS011;12205;50.600;4.608;2023-04-25T13:25:51;4.10;;;0.32;;
23990;SDS011;12205;50.600;4.608;2023-04-25T13:28:18;3.45;;;0.40;;
23990;SDS011;12205;50.600;4.608;2023-04-25T13:30:45;3.10;;;0.43;;
23990;SDS011;12205;50.600;4.608;2023-04-25T13:33:13;3.13;;;0.35;;
23990;SDS011;12205;50.600;4.608;2023-04-25T13:35:40;5.28;;;0.55;;
23990;SDS011;12205;50.600;4.608;2023-04-25T13:38:09;4.53;;;0.30;;
23990;SDS011;12205;50.600;4.608;2023-04-25T13:40:36;2.35;;;0.40;;
23990;SDS011;12205;50.600;4.608;2023-04-25T13:43:03;5.10;;;0.38;;
23990;SDS011;12205;50.600;4.608;2023-04-25T13:45:31;3.50;;;0.38;;
23990;SDS011;12205;50.600;4.608;2023-04-25T13:47:58;4.95;;;0.47;;
23990;SDS011;12205;50.600;4.608;2023-04-25T13:50:25;3.95;;;0.40;;
23990;SDS011;12205;50.600;4.608;2023-04-25T13:52:52;2.35;;;0.25;;
23990;SDS011;12205;50.600;4.608;2023-04-25T13:55:20;1.70;;;0.30;;
23990;SDS011;12205;50.600;4.608;2023-04-25T13:57:47;3.53;;;0.47;;
23990;SDS011;12205;50.600;4.608;2023-04-25T14:00:15;3.08;;;0.40;;
23990;SDS011;12205;50.600;4.608;2023-04-25T14:02:42;2.85;;;0.20;;
23990;SDS011;12205;50.600;4.608;2023-04-25T14:05:09;3.45;;;0.30;;
23990;SDS011;12205;50.600;4.608;2023-04-25T14:07:36;2.90;;;0.32;;
23990;SDS011;12205;50.600;4.608;2023-04-25T14:10:03;7.32;;;0.50;;
23990;SDS011;12205;50.600;4.608;2023-04-25T14:12:33;5.70;;;0.20;;
23990;SDS011;12205;50.600;4.608;2023-04-25T14:15:00;2.22;;;0.30;;
23990;SDS011;12205;50.600;4.608;2023-04-25T14:17:27;5.05;;;0.47;;
23990;SDS011;12205;50.600;4.608;2023-04-25T14:19:54;2.58;;;0.30;;
23990;SDS011;12205;50.600;4.608;2023-04-25T14:22:21;3.42;;;0.40;;
23990;SDS011;12205;50.600;4.608;2023-04-25T14:24:48;3.80;;;0.25;;
23990;SDS011;12205;50.600;4.608;2023-04-25T14:27:15;7.15;;;0.40;;
23990;SDS011;12205;50.600;4.608;2023-04-25T14:29:43;5.03;;;0.22;;
23990;SDS011;12205;50.600;4.608;2023-04-25T14:32:10;4.05;;;0.50;;
23990;SDS011;12205;50.600;4.608;2023-04-25T14:34:37;3.08;;;0.40;;
23990;SDS011;12205;50.600;4.608;2023-04-25T14:37:03;3.22;;;0.30;;
23990;SDS011;12205;50.600;4.608;2023-04-25T14:39:30;3.00;;;0.40;;
23990;SDS011;12205;50.600;4.608;2023-04-25T14:41:58;2.58;;;0.30;;
23990;SDS011;12205;50.600;4.608;2023-04-25T14:44:25;3.53;;;0.30;;
23990;SDS011;12205;50.600;4.608;2023-04-25T14:46:53;3.22;;;0.30;;
23990;SDS011;12205;50.600;4.608;2023-04-25T14:49:20;6.00;;;0.60;;
23990;SDS011;12205;50.600;4.608;2023-04-25T14:51:47;4.03;;;0.50;;
23990;SDS011;12205;50.600;4.608;2023-04-25T14:54:15;2.90;;;0.40;;
23990;SDS011;12205;50.600;4.608;2023-04-25T14:56:42;4.60;;;0.20;;
23990;SDS011;12205;50.600;4.608;2023-04-25T14:59:09;4.20;;;0.40;;
23990;SDS011;12205;50.600;4.608;2023-04-25T15:01:36;7.05;;;0.70;;
23990;SDS011;12205;50.600;4.608;2023-04-25T15:04:04;5.10;;;0.50;;
23990;SDS011;12205;50.600;4.608;2023-04-25T15:06:31;2.78;;;0.30;;
23990;SDS011;12205;50.600;4.608;2023-04-25T15:08:58;5.72;;;0.70;;
23990;SDS011;12205;50.600;4.608;2023-04-25T15:11:25;3.63;;;0.50;;
23990;SDS011;12205;50.600;4.608;2023-04-25T15:13:52;3.15;;;0.40;;